sensor_id;sensor_type;location;lat;lon;timestamp;pressure;altitude;pressure_sealevel;temperature
79148;BMP280;68562;51.600;6.524;2024-01-06T00:00:00;1001.3;;;12.4
79148;BMP280;68562;51.600;6.524;2024-01-06T00:05:01;1001.3;;;12.4
79148;BMP280;68562;51.600;6.524;2024-01-06T00:10:00;1001.3;;;12.5
79148;BMP280;68562;51.600;6.524;2024-01-06T00:15:00;1001.4;;;12.4
79148;BMP280;68562;51.600;6.524;2024-01-06T00:20:00;1001.4;;;12.6
79148;BMP280;68562;51.600;6.524;2024-01-06T00:25:00;1001.4;;;12.6
79148;BMP280;68562;51.600;6.524;2024-01-06T00:30:00;1001.5;;;12.6
79148;BMP280;68562;51.600;6.524;2024-01-06T00:35:00;1001.5;;;12.6
79148;BMP280;68562;51.600;6.524;2024-01-06T00:40:00;1001.5;;;12.6
79148;BMP280;68562;51.600;6.524;2024-01-06T00:45:00;1001.6;;;12.5
79148;BMP280;68562;51.600;6.524;2024-01-06T00:50:00;1001.6;;;12.5
79148;BMP280;68562;51.600;6.524;2024-01-06T00:55:00;1001.6;;;12.4
79148;BMP280;68562;51.600;6.524;2024-01-06T01:00:00;1001.6;;;12.4
79148;BMP280;68562;51.600;6.524;2024-01-06T01:05:00;1001.7;;;12.3
79148;BMP280;68562;51.600;6.524;2024-01-06T01:10:00;1001.7;;;12.4
79148;BMP280;68562;51.600;6.524;2024-01-06T01:15:00;1001.7;;;12.4
79148;BMP280;68562;51.600;6.524;2024-01-06T01:20:01;1001.7;;;12.4
79148;BMP280;68562;51.600;6.524;2024-01-06T01:25:00;1001.7;;;12.5
79148;BMP280;68562;51.600;6.524;2024-01-06T01:30:00;1001.8;;;12.5
79148;BMP280;68562;51.600;6.524;2024-01-06T01:35:00;1001.9;;;12.5
79148;BMP280;68562;51.600;6.524;2024-01-06T01:40:00;1001.9;;;12.5
79148;BMP280;68562;51.600;6.524;2024-01-06T01:45:00;1001.9;;;12.5
79148;BMP280;68562;51.600;6.524;2024-01-06T01:50:00;1002.0;;;12.5
79148;BMP280;68562;51.600;6.524;2024-01-06T01:55:00;1002.1;;;12.5
79148;BMP280;68562;51.600;6.524;2024-01-06T02:00:01;1002.2;;;12.4
79148;BMP280;68562;51.600;6.524;2024-01-06T02:05:00;1002.2;;;12.4
79148;BMP280;68562;51.600;6.524;2024-01-06T02:10:00;1002.4;;;12.3
79148;BMP280;68562;51.600;6.524;2024-01-06T02:15:00;1002.4;;;12.3
79148;BMP280;68562;51.600;6.524;2024-01-06T02:20:00;1002.5;;;12.1
79148;BMP280;68562;51.600;6.524;2024-01-06T02:25:00;1002.5;;;12.1
79148;BMP280;68562;51.600;6.524;2024-01-06T02:30:00;1002.7;;;12.0
79148;BMP280;68562;51.600;6.524;2024-01-06T02:35:00;1002.7;;;12.0
79148;BMP280;68562;51.600;6.524;2024-01-06T02:40:00;1002.9;;;11.9
79148;BMP280;68562;51.600;6.524;2024-01-06T02:45:00;1003.0;;;12.0
79148;BMP280;68562;51.600;6.524;2024-01-06T02:50:00;1003.1;;;11.9
79148;BMP280;68562;51.600;6.524;2024-01-06T02:55:00;1003.2;;;11.8
79148;BMP280;68562;51.600;6.524;2024-01-06T03:00:01;1003.3;;;11.7
79148;BMP280;68562;51.600;6.524;2024-01-06T03:05:00;1003.3;;;11.8
79148;BMP280;68562;51.600;6.524;2024-01-06T03:10:00;1003.3;;;11.7
79148;BMP280;68562;51.600;6.524;2024-01-06T03:15:00;1003.4;;;11.8
79148;BMP280;68562;51.600;6.524;2024-01-06T03:20:00;1003.4;;;11.7
79148;BMP280;68562;51.600;6.524;2024-01-06T03:25:00;1003.5;;;11.7
79148;BMP280;68562;51.600;6.524;2024-01-06T03:30:00;1003.5;;;11.6
79148;BMP280;68562;51.600;6.524;2024-01-06T03:35:00;1003.6;;;11.6
79148;BMP280;68562;51.600;6.524;2024-01-06T03:40:00;1003.6;;;11.6
79148;BMP280;68562;51.600;6.524;2024-01-06T03:45:00;1003.6;;;11.6
79148;BMP280;68562;51.600;6.524;2024-01-06T03:50:00;1003.6;;;11.6
79148;BMP280;68562;51.600;6.524;2024-01-06T03:55:00;1003.7;;;11.6
79148;BMP280;68562;51.600;6.524;2024-01-06T04:00:02;1003.8;;;11.6
79148;BMP280;68562;51.600;6.524;2024-01-06T04:05:00;1003.8;;;11.5
79148;BMP280;68562;51.600;6.524;2024-01-06T04:10:00;1003.8;;;11.4
79148;BMP280;68562;51.600;6.524;2024-01-06T04:15:01;1003.9;;;11.5
79148;BMP280;68562;51.600;6.524;2024-01-06T04:20:00;1003.9;;;11.4
79148;BMP280;68562;51.600;6.524;2024-01-06T04:25:00;1004.0;;;11.5
79148;BMP280;68562;51.600;6.524;2024-01-06T04:30:00;1004.0;;;11.5
79148;BMP280;68562;51.600;6.524;2024-01-06T04:35:00;1004.1;;;11.6
79148;BMP280;68562;51.600;6.524;2024-01-06T04:40:00;1004.1;;;11.6
79148;BMP280;68562;51.600;6.524;2024-01-06T04:45:00;1004.1;;;11.6
79148;BMP280;68562;51.600;6.524;2024-01-06T04:50:00;1004.2;;;11.6
79148;BMP280;68562;51.600;6.524;2024-01-06T04:55:00;1004.1;;;11.6
79148;BMP280;68562;51.600;6.524;2024-01-06T05:00:00;1004.2;;;11.6
79148;BMP280;68562;51.600;6.524;2024-01-06T05:05:00;1004.2;;;11.6
79148;BMP280;68562;51.600;6.524;2024-01-06T05:10:00;1004.3;;;11.6
79148;BMP280;68562;51.600;6.524;2024-01-06T05:15:00;1004.3;;;11.5
79148;BMP280;68562;51.600;6.524;2024-01-06T05:20:00;1004.4;;;11.6
79148;BMP280;68562;51.600;6.524;2024-01-06T05:25:00;1004.4;;;11.5
79148;BMP280;68562;51.600;6.524;2024-01-06T05:30:01;1004.5;;;11.5
79148;BMP280;68562;51.600;6.524;2024-01-06T05:35:00;1004.5;;;11.4
79148;BMP280;68562;51.600;6.524;2024-01-06T05:40:00;1004.6;;;11.4
79148;BMP280;68562;51.600;6.524;2024-01-06T05:45:00;1004.6;;;11.3
79148;BMP280;68562;51.600;6.524;2024-01-06T05:50:00;1004.7;;;11.3
79148;BMP280;68562;51.600;6.524;2024-01-06T05:55:00;1004.7;;;11.2
79148;BMP280;68562;51.600;6.524;2024-01-06T06:00:00;1004.8;;;11.3
79148;BMP280;68562;51.600;6.524;2024-01-06T06:05:00;1004.8;;;11.2
79148;BMP280;68562;51.600;6.524;2024-01-06T06:10:00;1005.0;;;11.2
79148;BMP280;68562;51.600;6.524;2024-01-06T06:15:02;1005.1;;;11.1
79148;BMP280;68562;51.600;6.524;2024-01-06T06:20:00;1005.2;;;11.1
79148;BMP280;68562;51.600;6.524;2024-01-06T06:25:00;1005.3;;;11.1
79148;BMP280;68562;51.600;6.524;2024-01-06T06:30:00;1005.4;;;11.1
79148;BMP280;68562;51.600;6.524;2024-01-06T06:35:00;1005.5;;;11.0
79148;BMP280;68562;51.600;6.524;2024-01-06T06:40:00;1005.6;;;11.0
79148;BMP280;68562;51.600;6.524;2024-01-06T06:45:00;1005.6;;;10.9
79148;BMP280;68562;51.600;6.524;2024-01-06T06:50:00;1005.7;;;10.9
79148;BMP280;68562;51.600;6.524;2024-01-06T06:55:00;1005.9;;;10.9
79148;BMP280;68562;51.600;6.524;2024-01-06T07:00:00;1006.0;;;10.9
79148;BMP280;68562;51.600;6.524;2024-01-06T07:05:00;1005.9;;;10.8
79148;BMP280;68562;51.600;6.524;2024-01-06T07:10:00;1006.0;;;10.8
79148;BMP280;68562;51.600;6.524;2024-01-06T07:15:01;1006.2;;;10.8
79148;BMP280;68562;51.600;6.524;2024-01-06T07:20:00;1006.2;;;10.8
79148;BMP280;68562;51.600;6.524;2024-01-06T07:25:00;1006.2;;;10.8
79148;BMP280;68562;51.600;6.524;2024-01-06T07:30:01;1006.3;;;10.8
79148;BMP280;68562;51.600;6.524;2024-01-06T07:35:00;1006.4;;;10.8
79148;BMP280;68562;51.600;6.524;2024-01-06T07:40:00;1006.5;;;10.8
79148;BMP280;68562;51.600;6.524;2024-01-06T07:45:00;1006.6;;;10.7
79148;BMP280;68562;51.600;6.524;2024-01-06T07:50:00;1006.7;;;10.6
79148;BMP280;68562;51.600;6.524;2024-01-06T07:55:01;1006.9;;;10.6
79148;BMP280;68562;51.600;6.524;2024-01-06T08:00:00;1006.9;;;10.6
79148;BMP280;68562;51.600;6.524;2024-01-06T08:05:00;1007.0;;;10.7
79148;BMP280;68562;51.600;6.524;2024-01-06T08:10:00;1007.0;;;10.7
79148;BMP280;68562;51.600;6.524;2024-01-06T08:15:00;1007.1;;;10.7
79148;BMP280;68562;51.600;6.524;2024-01-06T08:25:00;1007.2;;;10.7
79148;BMP280;68562;51.600;6.524;2024-01-06T08:30:00;1007.3;;;10.6
79148;BMP280;68562;51.600;6.524;2024-01-06T08:35:00;1007.3;;;10.7
79148;BMP280;68562;51.600;6.524;2024-01-06T08:40:00;1007.4;;;10.6
79148;BMP280;68562;51.600;6.524;2024-01-06T08:45:00;1007.4;;;10.7
79148;BMP280;68562;51.600;6.524;2024-01-06T08:50:00;1007.5;;;10.6
79148;BMP280;68562;51.600;6.524;2024-01-06T08:55:01;1007.6;;;10.6
79148;BMP280;68562;51.600;6.524;2024-01-06T09:00:00;1007.7;;;10.6
79148;BMP280;68562;51.600;6.524;2024-01-06T09:05:00;1007.8;;;10.6
79148;BMP280;68562;51.600;6.524;2024-01-06T09:10:00;1007.9;;;10.6
79148;BMP280;68562;51.600;6.524;2024-01-06T09:15:00;1008.1;;;10.6
79148;BMP280;68562;51.600;6.524;2024-01-06T09:20:00;1008.1;;;10.6
79148;BMP280;68562;51.600;6.524;2024-01-06T09:25:03;1008.3;;;10.6
79148;BMP280;68562;51.600;6.524;2024-01-06T09:30:01;1008.4;;;10.7
79148;BMP280;68562;51.600;6.524;2024-01-06T09:35:00;1008.5;;;10.7
79148;BMP280;68562;51.600;6.524;2024-01-06T09:40:00;1008.5;;;10.6
79148;BMP280;68562;51.600;6.524;2024-01-06T09:45:00;1008.6;;;10.7
79148;BMP280;68562;51.600;6.524;2024-01-06T09:50:02;1008.6;;;10.7
79148;BMP280;68562;51.600;6.524;2024-01-06T09:55:02;1008.7;;;10.6
79148;BMP280;68562;51.600;6.524;2024-01-06T10:00:00;1008.8;;;10.6
79148;BMP280;68562;51.600;6.524;2024-01-06T10:05:00;1008.8;;;10.7
79148;BMP280;68562;51.600;6.524;2024-01-06T10:10:00;1008.8;;;10.6
79148;BMP280;68562;51.600;6.524;2024-01-06T10:15:02;1008.8;;;10.6
79148;BMP280;68562;51.600;6.524;2024-01-06T10:20:00;1008.9;;;10.6
79148;BMP280;68562;51.600;6.524;2024-01-06T10:25:00;1008.9;;;10.6
79148;BMP280;68562;51.600;6.524;2024-01-06T10:30:01;1009.0;;;10.6
79148;BMP280;68562;51.600;6.524;2024-01-06T10:35:00;1009.0;;;10.6
79148;BMP280;68562;51.600;6.524;2024-01-06T10:40:09;1009.1;;;10.6
79148;BMP280;68562;51.600;6.524;2024-01-06T10:45:00;1009.1;;;10.6
79148;BMP280;68562;51.600;6.524;2024-01-06T10:50:00;1009.1;;;10.5
79148;BMP280;68562;51.600;6.524;2024-01-06T10:55:01;1009.1;;;10.5
79148;BMP280;68562;51.600;6.524;2024-01-06T11:00:00;1009.1;;;10.5
79148;BMP280;68562;51.600;6.524;2024-01-06T11:05:00;1009.2;;;10.5
79148;BMP280;68562;51.600;6.524;2024-01-06T11:10:05;1009.2;;;10.5
79148;BMP280;68562;51.600;6.524;2024-01-06T11:15:02;1009.3;;;10.5
79148;BMP280;68562;51.600;6.524;2024-01-06T11:20:05;1009.3;;;10.5
79148;BMP280;68562;51.600;6.524;2024-01-06T11:25:04;1009.3;;;10.5
79148;BMP280;68562;51.600;6.524;2024-01-06T11:30:01;1009.3;;;10.5
79148;BMP280;68562;51.600;6.524;2024-01-06T11:35:05;1009.3;;;10.5
79148;BMP280;68562;51.600;6.524;2024-01-06T11:40:00;1009.3;;;10.5
79148;BMP280;68562;51.600;6.524;2024-01-06T11:45:01;1009.3;;;10.5
79148;BMP280;68562;51.600;6.524;2024-01-06T11:50:01;1009.3;;;10.4
79148;BMP280;68562;51.600;6.524;2024-01-06T11:55:01;1009.3;;;10.4
79148;BMP280;68562;51.600;6.524;2024-01-06T12:00:00;1009.3;;;10.4
79148;BMP280;68562;51.600;6.524;2024-01-06T12:05:00;1009.3;;;10.4
79148;BMP280;68562;51.600;6.524;2024-01-06T12:10:02;1009.3;;;10.3
79148;BMP280;68562;51.600;6.524;2024-01-06T12:15:00;1009.3;;;10.3
79148;BMP280;68562;51.600;6.524;2024-01-06T12:20:00;1009.3;;;10.4
79148;BMP280;68562;51.600;6.524;2024-01-06T12:25:00;1009.3;;;10.3
79148;BMP280;68562;51.600;6.524;2024-01-06T12:30:00;1009.4;;;10.4
79148;BMP280;68562;51.600;6.524;2024-01-06T12:35:01;1009.4;;;10.4
79148;BMP280;68562;51.600;6.524;2024-01-06T12:40:01;1009.5;;;10.3
79148;BMP280;68562;51.600;6.524;2024-01-06T12:45:00;1009.6;;;10.2
79148;BMP280;68562;51.600;6.524;2024-01-06T12:50:00;1009.5;;;10.2
79148;BMP280;68562;51.600;6.524;2024-01-06T12:55:00;1009.6;;;10.1
79148;BMP280;68562;51.600;6.524;2024-01-06T13:00:00;1009.6;;;10.1
79148;BMP280;68562;51.600;6.524;2024-01-06T13:05:00;1009.6;;;10.0
79148;BMP280;68562;51.600;6.524;2024-01-06T13:10:00;1009.6;;;10.0
79148;BMP280;68562;51.600;6.524;2024-01-06T13:15:00;1009.7;;;9.9
79148;BMP280;68562;51.600;6.524;2024-01-06T13:20:00;1009.8;;;10.0
79148;BMP280;68562;51.600;6.524;2024-01-06T13:25:00;1009.8;;;9.9
79148;BMP280;68562;51.600;6.524;2024-01-06T13:30:00;1009.9;;;10.0
79148;BMP280;68562;51.600;6.524;2024-01-06T13:35:00;1009.9;;;9.9
79148;BMP280;68562;51.600;6.524;2024-01-06T13:40:00;1009.9;;;9.9
79148;BMP280;68562;51.600;6.524;2024-01-06T13:45:00;1010.0;;;9.9
79148;BMP280;68562;51.600;6.524;2024-01-06T13:50:00;1010.0;;;9.9
79148;BMP280;68562;51.600;6.524;2024-01-06T13:55:00;1010.1;;;9.8
79148;BMP280;68562;51.600;6.524;2024-01-06T14:00:00;1010.1;;;9.8
79148;BMP280;68562;51.600;6.524;2024-01-06T14:05:00;1010.1;;;9.8
79148;BMP280;68562;51.600;6.524;2024-01-06T14:10:00;1010.1;;;9.8
79148;BMP280;68562;51.600;6.524;2024-01-06T14:15:01;1010.1;;;9.9
79148;BMP280;68562;51.600;6.524;2024-01-06T14:20:00;1010.2;;;9.9
79148;BMP280;68562;51.600;6.524;2024-01-06T14:25:00;1010.3;;;9.9
79148;BMP280;68562;51.600;6.524;2024-01-06T14:30:00;1010.3;;;9.9
79148;BMP280;68562;51.600;6.524;2024-01-06T14:35:00;1010.4;;;9.8
79148;BMP280;68562;51.600;6.524;2024-01-06T14:40:00;1010.5;;;9.8
79148;BMP280;68562;51.600;6.524;2024-01-06T14:45:00;1010.7;;;9.8
79148;BMP280;68562;51.600;6.524;2024-01-06T14:50:00;1010.7;;;9.7
79148;BMP280;68562;51.600;6.524;2024-01-06T14:55:00;1010.9;;;9.7
79148;BMP280;68562;51.600;6.524;2024-01-06T15:00:01;1011.0;;;9.7
79148;BMP280;68562;51.600;6.524;2024-01-06T15:05:00;1011.0;;;9.6
79148;BMP280;68562;51.600;6.524;2024-01-06T15:10:01;1011.0;;;9.6
79148;BMP280;68562;51.600;6.524;2024-01-06T15:15:00;1011.1;;;9.6
79148;BMP280;68562;51.600;6.524;2024-01-06T15:20:00;1011.2;;;9.5
79148;BMP280;68562;51.600;6.524;2024-01-06T15:25:00;1011.2;;;9.6
79148;BMP280;68562;51.600;6.524;2024-01-06T15:30:00;1011.3;;;9.5
79148;BMP280;68562;51.600;6.524;2024-01-06T15:35:00;1011.4;;;9.5
79148;BMP280;68562;51.600;6.524;2024-01-06T15:40:00;1011.5;;;9.5
79148;BMP280;68562;51.600;6.524;2024-01-06T15:45:01;1011.6;;;9.4
79148;BMP280;68562;51.600;6.524;2024-01-06T15:50:00;1011.7;;;9.4
79148;BMP280;68562;51.600;6.524;2024-01-06T15:55:00;1011.7;;;9.4
79148;BMP280;68562;51.600;6.524;2024-01-06T16:00:00;1011.9;;;9.4
79148;BMP280;68562;51.600;6.524;2024-01-06T16:05:00;1011.9;;;9.4
79148;BMP280;68562;51.600;6.524;2024-01-06T16:10:01;1012.0;;;9.4
79148;BMP280;68562;51.600;6.524;2024-01-06T16:15:00;1012.0;;;9.4
79148;BMP280;68562;51.600;6.524;2024-01-06T16:20:00;1012.0;;;9.4
79148;BMP280;68562;51.600;6.524;2024-01-06T16:25:00;1012.0;;;9.4
79148;BMP280;68562;51.600;6.524;2024-01-06T16:30:00;1012.1;;;9.4
79148;BMP280;68562;51.600;6.524;2024-01-06T16:35:00;1012.1;;;9.4
79148;BMP280;68562;51.600;6.524;2024-01-06T16:40:03;1012.1;;;9.4
79148;BMP280;68562;51.600;6.524;2024-01-06T16:45:00;1012.2;;;9.4
79148;BMP280;68562;51.600;6.524;2024-01-06T16:50:00;1012.2;;;9.3
79148;BMP280;68562;51.600;6.524;2024-01-06T16:55:00;1012.2;;;9.4
79148;BMP280;68562;51.600;6.524;2024-01-06T17:00:01;1012.3;;;9.4
79148;BMP280;68562;51.600;6.524;2024-01-06T17:05:00;1012.3;;;9.4
79148;BMP280;68562;51.600;6.524;2024-01-06T17:10:00;1012.3;;;9.3
79148;BMP280;68562;51.600;6.524;2024-01-06T17:15:00;1012.3;;;9.4
79148;BMP280;68562;51.600;6.524;2024-01-06T17:20:00;1012.3;;;9.3
79148;BMP280;68562;51.600;6.524;2024-01-06T17:25:00;1012.4;;;9.4
79148;BMP280;68562;51.600;6.524;2024-01-06T17:30:00;1012.4;;;9.4
79148;BMP280;68562;51.600;6.524;2024-01-06T17:35:01;1012.4;;;9.4
79148;BMP280;68562;51.600;6.524;2024-01-06T17:40:00;1012.5;;;9.4
79148;BMP280;68562;51.600;6.524;2024-01-06T17:45:00;1012.5;;;9.4
79148;BMP280;68562;51.600;6.524;2024-01-06T17:50:01;1012.5;;;9.4
79148;BMP280;68562;51.600;6.524;2024-01-06T17:55:00;1012.6;;;9.4
79148;BMP280;68562;51.600;6.524;2024-01-06T18:00:00;1012.6;;;9.4
79148;BMP280;68562;51.600;6.524;2024-01-06T18:05:01;1012.7;;;9.4
79148;BMP280;68562;51.600;6.524;2024-01-06T18:10:00;1012.7;;;9.4
79148;BMP280;68562;51.600;6.524;2024-01-06T18:15:00;1012.7;;;9.4
79148;BMP280;68562;51.600;6.524;2024-01-06T18:25:02;1012.8;;;9.4
79148;BMP280;68562;51.600;6.524;2024-01-06T18:30:00;1012.8;;;9.4
79148;BMP280;68562;51.600;6.524;2024-01-06T18:35:00;1012.9;;;9.4
79148;BMP280;68562;51.600;6.524;2024-01-06T18:40:00;1012.9;;;9.4
79148;BMP280;68562;51.600;6.524;2024-01-06T18:45:00;1012.9;;;9.3
79148;BMP280;68562;51.600;6.524;2024-01-06T18:50:00;1013.0;;;9.2
79148;BMP280;68562;51.600;6.524;2024-01-06T18:55:01;1013.0;;;9.2
79148;BMP280;68562;51.600;6.524;2024-01-06T19:00:00;1013.1;;;9.2
79148;BMP280;68562;51.600;6.524;2024-01-06T19:05:00;1013.1;;;9.2
79148;BMP280;68562;51.600;6.524;2024-01-06T19:10:00;1013.2;;;9.2
79148;BMP280;68562;51.600;6.524;2024-01-06T19:15:00;1013.2;;;9.2
79148;BMP280;68562;51.600;6.524;2024-01-06T19:20:00;1013.3;;;9.1
79148;BMP280;68562;51.600;6.524;2024-01-06T19:25:00;1013.4;;;9.2
79148;BMP280;68562;51.600;6.524;2024-01-06T19:30:00;1013.4;;;9.1
79148;BMP280;68562;51.600;6.524;2024-01-06T19:35:00;1013.5;;;9.2
79148;BMP280;68562;51.600;6.524;2024-01-06T19:40:01;1013.5;;;9.1
79148;BMP280;68562;51.600;6.524;2024-01-06T19:45:00;1013.6;;;9.2
79148;BMP280;68562;51.600;6.524;2024-01-06T19:50:00;1013.6;;;9.2
79148;BMP280;68562;51.600;6.524;2024-01-06T19:55:00;1013.6;;;9.2
79148;BMP280;68562;51.600;6.524;2024-01-06T20:00:00;1013.6;;;9.2
79148;BMP280;68562;51.600;6.524;2024-01-06T20:05:00;1013.6;;;9.3
79148;BMP280;68562;51.600;6.524;2024-01-06T20:10:01;1013.7;;;9.2
79148;BMP280;68562;51.600;6.524;2024-01-06T20:15:01;1013.7;;;9.3
79148;BMP280;68562;51.600;6.524;2024-01-06T20:20:00;1013.8;;;9.2
79148;BMP280;68562;51.600;6.524;2024-01-06T20:25:00;1013.8;;;9.3
79148;BMP280;68562;51.600;6.524;2024-01-06T20:30:00;1013.8;;;9.2
79148;BMP280;68562;51.600;6.524;2024-01-06T20:35:00;1013.8;;;9.2
79148;BMP280;68562;51.600;6.524;2024-01-06T20:40:00;1013.8;;;9.2
79148;BMP280;68562;51.600;6.524;2024-01-06T20:45:01;1013.8;;;9.2
79148;BMP280;68562;51.600;6.524;2024-01-06T20:50:00;1013.8;;;9.2
79148;BMP280;68562;51.600;6.524;2024-01-06T20:55:00;1013.8;;;9.2
79148;BMP280;68562;51.600;6.524;2024-01-06T21:00:00;1013.8;;;9.2
79148;BMP280;68562;51.600;6.524;2024-01-06T21:05:00;1013.8;;;9.2
79148;BMP280;68562;51.600;6.524;2024-01-06T21:10:00;1013.9;;;9.2
79148;BMP280;68562;51.600;6.524;2024-01-06T21:15:00;1013.9;;;9.2
79148;BMP280;68562;51.600;6.524;2024-01-06T21:20:00;1013.9;;;9.2
79148;BMP280;68562;51.600;6.524;2024-01-06T21:25:00;1013.9;;;9.1
79148;BMP280;68562;51.600;6.524;2024-01-06T21:30:00;1013.9;;;9.1
79148;BMP280;68562;51.600;6.524;2024-01-06T21:35:01;1014.0;;;9.1
79148;BMP280;68562;51.600;6.524;2024-01-06T21:40:00;1014.0;;;9.1
79148;BMP280;68562;51.600;6.524;2024-01-06T21:45:00;1014.1;;;9.1
79148;BMP280;68562;51.600;6.524;2024-01-06T21:50:00;1014.1;;;9.1
79148;BMP280;68562;51.600;6.524;2024-01-06T21:55:00;1014.1;;;9.1
79148;BMP280;68562;51.600;6.524;2024-01-06T22:00:00;1014.1;;;9.1
79148;BMP280;68562;51.600;6.524;2024-01-06T22:05:00;1014.2;;;9.1
79148;BMP280;68562;51.600;6.524;2024-01-06T22:10:00;1014.2;;;9.1
79148;BMP280;68562;51.600;6.524;2024-01-06T22:15:00;1014.3;;;9.1
79148;BMP280;68562;51.600;6.524;2024-01-06T22:20:00;1014.4;;;9.1
79148;BMP280;68562;51.600;6.524;2024-01-06T22:25:00;1014.4;;;9.1
79148;BMP280;68562;51.600;6.524;2024-01-06T22:30:00;1014.4;;;9.1
79148;BMP280;68562;51.600;6.524;2024-01-06T22:35:00;1014.5;;;9.1
79148;BMP280;68562;51.600;6.524;2024-01-06T22:40:00;1014.5;;;9.1
79148;BMP280;68562;51.600;6.524;2024-01-06T22:45:00;1014.5;;;9.1
79148;BMP280;68562;51.600;6.524;2024-01-06T22:50:00;1014.5;;;9.1
79148;BMP280;68562;51.600;6.524;2024-01-06T22:55:00;1014.6;;;9.1
79148;BMP280;68562;51.600;6.524;2024-01-06T23:00:00;1014.7;;;9.1
79148;BMP280;68562;51.600;6.524;2024-01-06T23:05:00;1014.7;;;9.1
79148;BMP280;68562;51.600;6.524;2024-01-06T23:10:00;1014.7;;;9.1
79148;BMP280;68562;51.600;6.524;2024-01-06T23:15:01;1014.8;;;9.1
79148;BMP280;68562;51.600;6.524;2024-01-06T23:20:00;1014.8;;;9.1
79148;BMP280;68562;51.600;6.524;2024-01-06T23:25:00;1014.8;;;9.1
79148;BMP280;68562;51.600;6.524;2024-01-06T23:30:00;1014.9;;;9.2
79148;BMP280;68562;51.600;6.524;2024-01-06T23:35:00;1014.9;;;9.1
79148;BMP280;68562;51.600;6.524;2024-01-06T23:40:00;1014.9;;;9.2
79148;BMP280;68562;51.600;6.524;2024-01-06T23:45:01;1015.0;;;9.2
79148;BMP280;68562;51.600;6.524;2024-01-06T23:50:00;1015.0;;;9.2
79148;BMP280;68562;51.600;6.524;2024-01-06T23:55:00;1015.1;;;9.2
